createdAt,value
2022-12-23T06:03:38.126Z,17.60
2022-12-23T06:05:44.711Z,16.90
2022-12-23T06:07:48.063Z,17.02
2022-12-23T06:09:51.424Z,14.77
2022-12-23T06:11:54.405Z,14.68
2022-12-23T06:13:57.555Z,17.05
2022-12-23T06:16:00.850Z,16.15
2022-12-23T06:18:03.661Z,16.92
2022-12-23T06:20:07.428Z,13.90
2022-12-23T06:22:10.436Z,14.02
2022-12-23T06:24:14.095Z,16.85
2022-12-23T06:26:17.156Z,15.65
2022-12-23T06:28:19.816Z,15.18
2022-12-23T06:30:22.498Z,16.23
2022-12-23T06:32:25.151Z,14.52
2022-12-23T06:34:27.885Z,14.98
2022-12-23T06:36:30.742Z,16.38
2022-12-23T06:38:33.963Z,15.80
2022-12-23T06:40:38.264Z,17.05
2022-12-23T06:42:41.665Z,16.55
2022-12-23T06:44:45.282Z,16.65
2022-12-23T06:46:48.368Z,18.23
2022-12-23T06:48:51.233Z,17.17
2022-12-23T06:50:54.123Z,17.58
2022-12-23T06:52:57.114Z,17.10
2022-12-23T06:54:59.664Z,17.70
2022-12-23T06:57:02.645Z,17.85
2022-12-23T06:59:05.722Z,18.40
2022-12-23T07:01:10.113Z,19.95
2022-12-23T07:03:13.893Z,18.60
2022-12-23T07:05:18.009Z,18.80
2022-12-23T07:07:22.751Z,19.58
2022-12-23T07:09:27.401Z,20.17
2022-12-23T07:11:31.617Z,17.92
2022-12-23T07:13:35.053Z,19.52
2022-12-23T07:15:39.442Z,19.20
2022-12-23T07:17:42.641Z,18.40
2022-12-23T07:19:45.524Z,19.60
2022-12-23T07:21:48.684Z,19.48
2022-12-23T07:23:51.440Z,18.75
2022-12-23T07:25:55.064Z,19.42
2022-12-23T07:27:57.874Z,19.30
2022-12-23T07:30:00.672Z,19.45
2022-12-23T07:32:04.941Z,20.17
2022-12-23T07:34:07.779Z,21.17
2022-12-23T07:36:10.832Z,19.95
2022-12-23T07:38:13.482Z,20.67
2022-12-23T07:40:16.474Z,21.17
2022-12-23T07:42:45.269Z,21.67
2022-12-23T07:44:41.771Z,21.42
2022-12-23T07:46:44.537Z,22.00
2022-12-23T07:48:47.863Z,21.52
2022-12-23T07:50:50.460Z,20.30
2022-12-23T07:52:54.448Z,22.08
2022-12-23T07:54:57.316Z,22.35
2022-12-23T07:56:59.821Z,22.77
2022-12-23T07:59:02.690Z,21.17
2022-12-23T08:01:08.480Z,21.67
2022-12-23T08:03:13.261Z,21.98
2022-12-23T08:05:16.871Z,21.65
2022-12-23T08:07:19.523Z,23.35
2022-12-23T08:09:22.272Z,21.13
2022-12-23T08:11:25.100Z,22.27
2022-12-23T08:13:28.468Z,21.30
2022-12-23T08:15:31.133Z,20.98
2022-12-23T08:17:33.781Z,22.75
2022-12-23T08:19:36.421Z,21.08
2022-12-23T08:21:39.581Z,22.83
2022-12-23T08:23:44.060Z,22.23
2022-12-23T08:25:47.470Z,22.02
2022-12-23T08:27:51.884Z,21.85
2022-12-23T08:29:54.907Z,23.58
2022-12-23T08:31:58.153Z,22.23
2022-12-23T08:34:02.289Z,23.58
2022-12-23T08:36:06.339Z,20.88
2022-12-23T08:38:09.224Z,22.88
2022-12-23T08:40:12.825Z,22.35
2022-12-23T08:42:16.242Z,21.88
2022-12-23T08:44:19.884Z,21.63
2022-12-23T08:46:24.334Z,21.85
2022-12-23T08:48:27.151Z,20.45
2022-12-23T08:50:29.933Z,21.63
2022-12-23T08:52:32.515Z,19.90
2022-12-23T08:54:35.078Z,21.33
2022-12-23T08:56:42.141Z,22.05
2022-12-23T08:58:47.506Z,21.80
2022-12-23T09:00:49.992Z,22.63
2022-12-23T09:02:52.697Z,22.65
2022-12-23T09:04:55.181Z,21.45
2022-12-23T09:06:57.744Z,23.42
2022-12-23T09:09:00.424Z,22.35
2022-12-23T09:11:03.213Z,22.80
2022-12-23T09:13:05.724Z,24.27
2022-12-23T09:15:08.932Z,24.67
2022-12-23T09:17:12.184Z,22.33
2022-12-23T09:19:14.845Z,22.40
2022-12-23T09:21:20.657Z,21.70
2022-12-23T09:23:23.342Z,21.50
2022-12-23T09:25:26.190Z,23.05
2022-12-23T09:27:28.653Z,22.17
2022-12-23T09:29:31.274Z,23.40
2022-12-23T09:31:37.212Z,23.52
2022-12-23T09:33:40.510Z,20.98
2022-12-23T09:35:43.591Z,22.08
2022-12-23T09:37:47.001Z,22.65
2022-12-23T09:39:50.294Z,23.17
2022-12-23T09:41:55.918Z,22.65
2022-12-23T09:44:35.166Z,22.65
2022-12-23T09:46:44.498Z,23.85
2022-12-23T09:48:59.300Z,23.70
2022-12-23T09:51:03.977Z,23.67
2022-12-23T09:53:28.832Z,23.33
2022-12-23T09:56:00.674Z,22.35
2022-12-23T09:58:09.087Z,21.73
2022-12-23T10:00:19.018Z,23.90
2022-12-23T10:02:40.236Z,22.67
2022-12-23T10:05:14.233Z,22.20
2022-12-23T10:07:29.174Z,20.05
2022-12-23T10:09:38.991Z,21.77
2022-12-23T10:11:46.884Z,21.23
2022-12-23T10:13:53.666Z,21.20
2022-12-23T10:16:00.334Z,20.85
2022-12-23T10:18:42.098Z,21.85
2022-12-23T10:21:08.118Z,20.48
2022-12-23T10:23:19.654Z,20.42
2022-12-23T10:25:39.632Z,21.53
2022-12-23T10:27:44.347Z,21.45
2022-12-23T10:29:46.825Z,20.60
2022-12-23T10:32:20.280Z,21.77
2022-12-23T10:34:33.433Z,21.70
2022-12-23T10:36:52.204Z,19.70
2022-12-23T10:39:13.234Z,20.92
2022-12-23T10:41:41.592Z,20.95
2022-12-23T10:43:59.119Z,22.52
2022-12-23T10:46:14.011Z,21.85
2022-12-23T10:48:36.711Z,23.08
2022-12-23T10:50:54.117Z,20.80
2022-12-23T10:53:02.191Z,20.67
2022-12-23T10:55:06.303Z,21.45
2022-12-23T10:57:09.664Z,21.98
2022-12-23T10:59:16.630Z,21.25
2022-12-23T11:01:26.558Z,22.27
2022-12-23T11:03:41.097Z,22.52
2022-12-23T11:05:46.902Z,23.25
2022-12-23T11:07:50.775Z,24.27
2022-12-23T11:09:58.324Z,22.52
2022-12-23T11:12:03.849Z,23.15
2022-12-23T11:14:06.373Z,22.38
2022-12-23T11:16:27.765Z,23.45
2022-12-23T11:18:30.375Z,22.58
2022-12-23T11:20:36.201Z,23.75
2022-12-23T11:22:54.155Z,24.70
2022-12-23T11:24:59.808Z,24.95
2022-12-23T11:27:07.956Z,24.30
2022-12-23T11:29:39.436Z,23.83
2022-12-23T11:31:44.545Z,23.17
2022-12-23T11:33:56.551Z,23.75
2022-12-23T11:36:26.484Z,24.15
2022-12-23T11:38:29.195Z,22.35
2022-12-23T11:40:37.253Z,24.70
2022-12-23T11:42:42.575Z,24.00
2022-12-23T11:44:50.469Z,21.55
2022-12-23T11:46:54.415Z,25.80
2022-12-23T11:49:12.815Z,24.77
2022-12-23T11:51:27.147Z,22.42
2022-12-23T11:53:29.740Z,23.50
2022-12-23T11:55:36.586Z,24.45
2022-12-23T11:57:43.557Z,25.85
2022-12-23T11:59:50.300Z,26.73
2022-12-23T12:01:53.538Z,26.08
2022-12-23T12:04:07.276Z,26.30
2022-12-23T12:06:15.903Z,28.73
2022-12-23T12:08:26.095Z,26.95
2022-12-23T12:10:34.581Z,27.15
2022-12-23T12:12:37.121Z,26.88
2022-12-23T12:15:07.464Z,25.90
2022-12-23T12:17:24.096Z,27.58
2022-12-23T12:19:37.172Z,27.27
2022-12-23T12:21:40.133Z,27.63
2022-12-23T12:24:17.214Z,25.35
2022-12-23T12:26:38.549Z,27.08
2022-12-23T12:28:50.730Z,27.27
2022-12-23T12:31:05.487Z,27.13
2022-12-23T12:33:20.283Z,28.75
2022-12-23T12:35:39.057Z,26.52
2022-12-23T12:37:58.062Z,27.52
2022-12-23T12:40:04.654Z,28.40
2022-12-23T12:42:25.649Z,26.98
2022-12-23T12:44:58.003Z,27.20
2022-12-23T12:47:53.929Z,26.83
2022-12-23T12:50:04.353Z,26.90
2022-12-23T19:58:54.693Z,9.85
2022-12-23T20:01:27.698Z,11.00
2022-12-23T20:03:30.423Z,9.77
2022-12-23T20:05:33.385Z,9.75
2022-12-23T20:07:37.497Z,9.57
2022-12-23T20:09:39.966Z,8.77
2022-12-23T20:11:45.294Z,8.50
2022-12-23T20:13:51.831Z,7.75
2022-12-23T20:15:54.317Z,8.27
2022-12-23T20:17:57.550Z,9.18
2022-12-23T20:19:59.945Z,8.95
2022-12-23T20:22:02.555Z,9.60
2022-12-23T20:24:08.650Z,10.13
2022-12-23T20:26:14.167Z,9.30
2022-12-23T20:28:16.989Z,9.75
2022-12-23T20:30:19.673Z,9.25
2022-12-23T20:32:22.207Z,9.82
2022-12-23T20:34:24.742Z,8.98
2022-12-23T20:36:31.109Z,10.63
2022-12-23T20:38:39.213Z,10.57
2022-12-23T20:40:41.544Z,11.27
2022-12-23T20:42:44.355Z,12.02
2022-12-23T20:44:47.405Z,11.32
2022-12-23T20:46:51.239Z,11.50
2022-12-23T20:48:56.063Z,12.90
2022-12-23T21:34:52.092Z,17.33
2022-12-23T21:36:54.910Z,19.95
2022-12-23T21:38:58.122Z,18.00
2022-12-23T21:41:03.376Z,17.50
2022-12-23T21:43:08.790Z,16.40
2022-12-23T21:45:11.675Z,16.33
2022-12-23T21:47:14.733Z,16.40
2022-12-23T21:49:17.885Z,16.10
2022-12-23T21:51:21.625Z,18.38
2022-12-23T21:53:24.697Z,22.20
2022-12-23T21:55:27.350Z,20.20
